sensor_id;sensor_type;location;lat;lon;timestamp;P1;durP1;ratioP1;P2;durP2;ratioP2
29854;SDS011;16733;48.738;9.106;2022-11-15T00:00:08;5.20;;;2.70;;
29854;SDS011;16733;48.738;9.106;2022-11-15T00:02:34;4.38;;;2.60;;
29854;SDS011;16733;48.738;9.106;2022-11-15T00:05:00;3.67;;;1.95;;
29854;SDS011;16733;48.738;9.106;2022-11-15T00:07:26;5.60;;;2.65;;
29854;SDS011;16733;48.738;9.106;2022-11-15T00:09:51;5.57;;;2.33;;
29854;SDS011;16733;48.738;9.106;2022-11-15T00:12:17;4.40;;;2.38;;
29854;SDS011;16733;48.738;9.106;2022-11-15T00:14:42;2.80;;;1.70;;
29854;SDS011;16733;48.738;9.106;2022-11-15T00:19:38;2.65;;;1.70;;
29854;SDS011;16733;48.738;9.106;2022-11-15T00:22:04;3.10;;;1.80;;
29854;SDS011;16733;48.738;9.106;2022-11-15T00:24:29;3.00;;;2.20;;
29854;SDS011;16733;48.738;9.106;2022-11-15T00:26:55;3.80;;;1.70;;
29854;SDS011;16733;48.738;9.106;2022-11-15T00:29:20;3.72;;;1.73;;
29854;SDS011;16733;48.738;9.106;2022-11-15T00:31:46;2.65;;;1.58;;
29854;SDS011;16733;48.738;9.106;2022-11-15T00:34:11;4.35;;;1.65;;
29854;SDS011;16733;48.738;9.106;2022-11-15T00:36:37;2.63;;;1.83;;
29854;SDS011;16733;48.738;9.106;2022-11-15T00:39:03;10.10;;;1.85;;
29854;SDS011;16733;48.738;9.106;2022-11-15T00:41:30;3.63;;;2.22;;
29854;SDS011;16733;48.738;9.106;2022-11-15T00:43:56;2.08;;;1.60;;
29854;SDS011;16733;48.738;9.106;2022-11-15T00:46:21;4.05;;;1.98;;
29854;SDS011;16733;48.738;9.106;2022-11-15T00:48:47;2.75;;;1.73;;
29854;SDS011;16733;48.738;9.106;2022-11-15T00:51:13;2.88;;;1.63;;
29854;SDS011;16733;48.738;9.106;2022-11-15T00:53:38;4.00;;;1.77;;
29854;SDS011;16733;48.738;9.106;2022-11-15T00:56:04;2.40;;;1.48;;
29854;SDS011;16733;48.738;9.106;2022-11-15T00:58:29;3.15;;;1.52;;
29854;SDS011;16733;48.738;9.106;2022-11-15T01:00:55;2.58;;;1.60;;
29854;SDS011;16733;48.738;9.106;2022-11-15T01:03:21;4.53;;;1.55;;
29854;SDS011;16733;48.738;9.106;2022-11-15T01:05:46;5.50;;;1.90;;
29854;SDS011;16733;48.738;9.106;2022-11-15T01:08:15;2.95;;;1.65;;
29854;SDS011;16733;48.738;9.106;2022-11-15T01:10:41;4.43;;;2.08;;
29854;SDS011;16733;48.738;9.106;2022-11-15T01:13:07;5.60;;;1.88;;
29854;SDS011;16733;48.738;9.106;2022-11-15T01:15:33;2.10;;;1.70;;
29854;SDS011;16733;48.738;9.106;2022-11-15T01:17:59;2.97;;;1.45;;
29854;SDS011;16733;48.738;9.106;2022-11-15T01:20:24;6.05;;;1.60;;
29854;SDS011;16733;48.738;9.106;2022-11-15T01:22:50;8.85;;;1.67;;
29854;SDS011;16733;48.738;9.106;2022-11-15T01:25:15;2.55;;;1.40;;
29854;SDS011;16733;48.738;9.106;2022-11-15T01:27:41;2.22;;;1.50;;
29854;SDS011;16733;48.738;9.106;2022-11-15T01:30:07;3.67;;;2.03;;
29854;SDS011;16733;48.738;9.106;2022-11-15T01:32:33;4.50;;;1.90;;
29854;SDS011;16733;48.738;9.106;2022-11-15T01:34:58;2.10;;;1.63;;
29854;SDS011;16733;48.738;9.106;2022-11-15T01:37:24;3.92;;;2.13;;
29854;SDS011;16733;48.738;9.106;2022-11-15T01:39:50;3.63;;;2.10;;
29854;SDS011;16733;48.738;9.106;2022-11-15T01:42:15;2.92;;;1.70;;
29854;SDS011;16733;48.738;9.106;2022-11-15T01:44:43;2.97;;;2.05;;
29854;SDS011;16733;48.738;9.106;2022-11-15T01:47:14;4.00;;;1.80;;
29854;SDS011;16733;48.738;9.106;2022-11-15T01:49:47;3.22;;;2.00;;
29854;SDS011;16733;48.738;9.106;2022-11-15T01:52:19;3.15;;;2.03;;
29854;SDS011;16733;48.738;9.106;2022-11-15T01:54:47;3.03;;;1.90;;
29854;SDS011;16733;48.738;9.106;2022-11-15T01:57:16;2.60;;;2.00;;
29854;SDS011;16733;48.738;9.106;2022-11-15T01:59:43;2.60;;;1.92;;
29854;SDS011;16733;48.738;9.106;2022-11-15T02:02:09;7.18;;;1.95;;
29854;SDS011;16733;48.738;9.106;2022-11-15T02:04:37;2.47;;;1.90;;
29854;SDS011;16733;48.738;9.106;2022-11-15T02:07:09;3.38;;;2.05;;
29854;SDS011;16733;48.738;9.106;2022-11-15T02:09:38;3.53;;;1.98;;
29854;SDS011;16733;48.738;9.106;2022-11-15T02:12:05;4.15;;;1.98;;
29854;SDS011;16733;48.738;9.106;2022-11-15T02:14:33;3.50;;;1.88;;
29854;SDS011;16733;48.738;9.106;2022-11-15T02:17:06;2.65;;;1.77;;
29854;SDS011;16733;48.738;9.106;2022-11-15T02:19:52;4.22;;;2.10;;
29854;SDS011;16733;48.738;9.106;2022-11-15T02:27:47;4.93;;;1.85;;
29854;SDS011;16733;48.738;9.106;2022-11-15T02:33:06;3.38;;;2.00;;
29854;SDS011;16733;48.738;9.106;2022-11-15T02:35:59;2.33;;;1.58;;
29854;SDS011;16733;48.738;9.106;2022-11-15T02:41:03;5.75;;;1.73;;
29854;SDS011;16733;48.738;9.106;2022-11-15T02:43:38;3.15;;;1.58;;
29854;SDS011;16733;48.738;9.106;2022-11-15T02:46:34;3.30;;;1.73;;
29854;SDS011;16733;48.738;9.106;2022-11-15T02:49:23;2.40;;;1.75;;
29854;SDS011;16733;48.738;9.106;2022-11-15T02:51:51;2.65;;;1.83;;
29854;SDS011;16733;48.738;9.106;2022-11-15T02:54:20;5.20;;;1.73;;
29854;SDS011;16733;48.738;9.106;2022-11-15T02:56:47;5.07;;;1.63;;
29854;SDS011;16733;48.738;9.106;2022-11-15T03:07:11;3.83;;;1.95;;
29854;SDS011;16733;48.738;9.106;2022-11-15T03:15:24;2.10;;;1.90;;
29854;SDS011;16733;48.738;9.106;2022-11-15T03:18:10;4.88;;;1.58;;
29854;SDS011;16733;48.738;9.106;2022-11-15T03:20:38;3.83;;;1.35;;
29854;SDS011;16733;48.738;9.106;2022-11-15T03:23:05;6.22;;;1.95;;
29854;SDS011;16733;48.738;9.106;2022-11-15T03:25:34;2.78;;;1.90;;
29854;SDS011;16733;48.738;9.106;2022-11-15T03:28:03;3.10;;;1.80;;
29854;SDS011;16733;48.738;9.106;2022-11-15T03:30:32;2.70;;;1.55;;
29854;SDS011;16733;48.738;9.106;2022-11-15T03:33:01;4.13;;;2.08;;
29854;SDS011;16733;48.738;9.106;2022-11-15T03:35:29;4.75;;;2.10;;
29854;SDS011;16733;48.738;9.106;2022-11-15T03:40:37;4.50;;;1.45;;
29854;SDS011;16733;48.738;9.106;2022-11-15T03:45:51;3.90;;;2.00;;
29854;SDS011;16733;48.738;9.106;2022-11-15T03:48:26;3.08;;;1.90;;
29854;SDS011;16733;48.738;9.106;2022-11-15T03:50:58;3.70;;;1.63;;
29854;SDS011;16733;48.738;9.106;2022-11-15T03:53:24;2.60;;;1.90;;
29854;SDS011;16733;48.738;9.106;2022-11-15T03:55:49;2.67;;;1.90;;
29854;SDS011;16733;48.738;9.106;2022-11-15T03:58:15;4.15;;;2.10;;
29854;SDS011;16733;48.738;9.106;2022-11-15T04:00:41;5.15;;;1.92;;
29854;SDS011;16733;48.738;9.106;2022-11-15T04:03:06;4.60;;;2.15;;
29854;SDS011;16733;48.738;9.106;2022-11-15T04:05:32;3.95;;;2.03;;
29854;SDS011;16733;48.738;9.106;2022-11-15T04:07:58;5.00;;;2.13;;
29854;SDS011;16733;48.738;9.106;2022-11-15T04:10:24;6.72;;;2.17;;
29854;SDS011;16733;48.738;9.106;2022-11-15T04:12:49;3.90;;;2.05;;
29854;SDS011;16733;48.738;9.106;2022-11-15T04:15:16;2.72;;;1.70;;
29854;SDS011;16733;48.738;9.106;2022-11-15T04:17:47;3.42;;;1.85;;
29854;SDS011;16733;48.738;9.106;2022-11-15T04:20:25;4.40;;;2.20;;
29854;SDS011;16733;48.738;9.106;2022-11-15T04:23:12;4.75;;;1.90;;
29854;SDS011;16733;48.738;9.106;2022-11-15T04:26:02;4.85;;;2.00;;
29854;SDS011;16733;48.738;9.106;2022-11-15T04:28:30;6.13;;;2.10;;
29854;SDS011;16733;48.738;9.106;2022-11-15T04:30:55;2.17;;;1.60;;
29854;SDS011;16733;48.738;9.106;2022-11-15T04:33:21;2.20;;;1.80;;
29854;SDS011;16733;48.738;9.106;2022-11-15T04:35:47;4.35;;;1.67;;
29854;SDS011;16733;48.738;9.106;2022-11-15T04:38:33;5.10;;;1.60;;
29854;SDS011;16733;48.738;9.106;2022-11-15T04:40:58;4.40;;;2.05;;
29854;SDS011;16733;48.738;9.106;2022-11-15T04:43:24;3.20;;;1.70;;
29854;SDS011;16733;48.738;9.106;2022-11-15T04:45:50;2.78;;;1.60;;
29854;SDS011;16733;48.738;9.106;2022-11-15T04:48:15;4.72;;;1.35;;
29854;SDS011;16733;48.738;9.106;2022-11-15T04:50:41;2.40;;;1.30;;
29854;SDS011;16733;48.738;9.106;2022-11-15T04:53:07;6.22;;;1.95;;
29854;SDS011;16733;48.738;9.106;2022-11-15T04:55:32;3.35;;;1.65;;
29854;SDS011;16733;48.738;9.106;2022-11-15T04:57:59;4.97;;;1.70;;
29854;SDS011;16733;48.738;9.106;2022-11-15T05:00:26;6.97;;;1.83;;
29854;SDS011;16733;48.738;9.106;2022-11-15T05:02:52;3.45;;;1.92;;
29854;SDS011;16733;48.738;9.106;2022-11-15T05:05:37;7.00;;;2.03;;
29854;SDS011;16733;48.738;9.106;2022-11-15T05:08:02;2.58;;;1.65;;
29854;SDS011;16733;48.738;9.106;2022-11-15T05:10:29;2.13;;;1.80;;
29854;SDS011;16733;48.738;9.106;2022-11-15T05:12:54;4.72;;;1.80;;
29854;SDS011;16733;48.738;9.106;2022-11-15T05:15:20;5.38;;;1.90;;
29854;SDS011;16733;48.738;9.106;2022-11-15T05:17:46;7.03;;;1.95;;
29854;SDS011;16733;48.738;9.106;2022-11-15T05:20:11;3.67;;;1.92;;
29854;SDS011;16733;48.738;9.106;2022-11-15T05:22:37;3.45;;;1.65;;
29854;SDS011;16733;48.738;9.106;2022-11-15T05:25:03;3.05;;;1.75;;
29854;SDS011;16733;48.738;9.106;2022-11-15T05:27:29;4.10;;;1.92;;
29854;SDS011;16733;48.738;9.106;2022-11-15T05:29:54;4.88;;;2.33;;
29854;SDS011;16733;48.738;9.106;2022-11-15T05:32:20;5.22;;;2.05;;
29854;SDS011;16733;48.738;9.106;2022-11-15T05:34:46;2.63;;;2.05;;
29854;SDS011;16733;48.738;9.106;2022-11-15T05:37:12;2.13;;;1.77;;
29854;SDS011;16733;48.738;9.106;2022-11-15T05:39:38;5.43;;;1.98;;
29854;SDS011;16733;48.738;9.106;2022-11-15T05:42:06;3.38;;;2.00;;
29854;SDS011;16733;48.738;9.106;2022-11-15T05:44:35;5.95;;;2.10;;
29854;SDS011;16733;48.738;9.106;2022-11-15T05:47:02;4.93;;;2.08;;
29854;SDS011;16733;48.738;9.106;2022-11-15T05:49:30;3.28;;;1.95;;
29854;SDS011;16733;48.738;9.106;2022-11-15T05:51:59;6.90;;;2.20;;
29854;SDS011;16733;48.738;9.106;2022-11-15T05:54:25;2.67;;;1.80;;
29854;SDS011;16733;48.738;9.106;2022-11-15T05:56:51;3.58;;;2.10;;
29854;SDS011;16733;48.738;9.106;2022-11-15T05:59:17;5.68;;;2.08;;
29854;SDS011;16733;48.738;9.106;2022-11-15T06:01:43;3.58;;;1.60;;
29854;SDS011;16733;48.738;9.106;2022-11-15T06:04:09;3.20;;;2.05;;
29854;SDS011;16733;48.738;9.106;2022-11-15T06:06:35;4.07;;;2.03;;
29854;SDS011;16733;48.738;9.106;2022-11-15T06:09:00;3.58;;;2.00;;
29854;SDS011;16733;48.738;9.106;2022-11-15T06:11:26;4.72;;;2.03;;
29854;SDS011;16733;48.738;9.106;2022-11-15T06:13:51;5.03;;;2.17;;
29854;SDS011;16733;48.738;9.106;2022-11-15T06:16:17;5.45;;;2.05;;
29854;SDS011;16733;48.738;9.106;2022-11-15T06:18:42;8.95;;;1.88;;
29854;SDS011;16733;48.738;9.106;2022-11-15T06:21:08;3.30;;;1.70;;
29854;SDS011;16733;48.738;9.106;2022-11-15T06:23:34;2.85;;;1.90;;
29854;SDS011;16733;48.738;9.106;2022-11-15T06:26:00;3.08;;;1.85;;
29854;SDS011;16733;48.738;9.106;2022-11-15T06:28:28;4.15;;;1.92;;
29854;SDS011;16733;48.738;9.106;2022-11-15T06:30:54;3.28;;;2.20;;
29854;SDS011;16733;48.738;9.106;2022-11-15T06:33:20;4.18;;;2.15;;
29854;SDS011;16733;48.738;9.106;2022-11-15T06:35:46;4.63;;;2.22;;
29854;SDS011;16733;48.738;9.106;2022-11-15T06:38:12;3.58;;;1.73;;
29854;SDS011;16733;48.738;9.106;2022-11-15T06:40:38;2.70;;;2.05;;
29854;SDS011;16733;48.738;9.106;2022-11-15T06:43:05;5.07;;;1.88;;
29854;SDS011;16733;48.738;9.106;2022-11-15T06:45:31;6.97;;;2.08;;
29854;SDS011;16733;48.738;9.106;2022-11-15T06:47:57;3.88;;;2.05;;
29854;SDS011;16733;48.738;9.106;2022-11-15T06:50:23;3.65;;;2.30;;
29854;SDS011;16733;48.738;9.106;2022-11-15T06:52:49;4.88;;;2.10;;
29854;SDS011;16733;48.738;9.106;2022-11-15T06:55:14;6.00;;;2.08;;
29854;SDS011;16733;48.738;9.106;2022-11-15T06:57:46;4.63;;;2.25;;
29854;SDS011;16733;48.738;9.106;2022-11-15T07:00:12;3.95;;;2.45;;
29854;SDS011;16733;48.738;9.106;2022-11-15T07:02:38;4.50;;;2.45;;
29854;SDS011;16733;48.738;9.106;2022-11-15T07:05:04;8.90;;;2.92;;
29854;SDS011;16733;48.738;9.106;2022-11-15T07:07:30;7.95;;;2.97;;
29854;SDS011;16733;48.738;9.106;2022-11-15T07:09:55;4.18;;;2.70;;
29854;SDS011;16733;48.738;9.106;2022-11-15T07:12:21;8.35;;;2.97;;
29854;SDS011;16733;48.738;9.106;2022-11-15T07:14:47;6.07;;;3.17;;
29854;SDS011;16733;48.738;9.106;2022-11-15T07:17:12;5.47;;;2.60;;
29854;SDS011;16733;48.738;9.106;2022-11-15T07:19:38;4.72;;;3.00;;
29854;SDS011;16733;48.738;9.106;2022-11-15T07:22:03;4.65;;;2.88;;
29854;SDS011;16733;48.738;9.106;2022-11-15T07:24:29;8.07;;;3.40;;
29854;SDS011;16733;48.738;9.106;2022-11-15T07:26:54;6.82;;;2.78;;
29854;SDS011;16733;48.738;9.106;2022-11-15T07:29:20;6.15;;;3.10;;
29854;SDS011;16733;48.738;9.106;2022-11-15T07:31:45;5.38;;;2.78;;
29854;SDS011;16733;48.738;9.106;2022-11-15T07:34:11;6.10;;;2.97;;
29854;SDS011;16733;48.738;9.106;2022-11-15T07:36:36;7.45;;;2.90;;
29854;SDS011;16733;48.738;9.106;2022-11-15T07:39:02;5.82;;;2.80;;
29854;SDS011;16733;48.738;9.106;2022-11-15T07:41:28;6.07;;;4.13;;
29854;SDS011;16733;48.738;9.106;2022-11-15T07:43:54;7.05;;;2.60;;
29854;SDS011;16733;48.738;9.106;2022-11-15T07:46:20;5.28;;;2.33;;
29854;SDS011;16733;48.738;9.106;2022-11-15T07:48:45;6.43;;;2.50;;
29854;SDS011;16733;48.738;9.106;2022-11-15T07:51:12;5.85;;;2.30;;
29854;SDS011;16733;48.738;9.106;2022-11-15T07:53:38;4.53;;;2.20;;
29854;SDS011;16733;48.738;9.106;2022-11-15T07:56:07;4.57;;;2.20;;
29854;SDS011;16733;48.738;9.106;2022-11-15T07:58:33;5.97;;;2.30;;
29854;SDS011;16733;48.738;9.106;2022-11-15T08:01:02;8.30;;;2.45;;
29854;SDS011;16733;48.738;9.106;2022-11-15T08:03:28;5.50;;;2.30;;
29854;SDS011;16733;48.738;9.106;2022-11-15T08:05:54;4.43;;;2.40;;
29854;SDS011;16733;48.738;9.106;2022-11-15T08:08:20;4.57;;;2.03;;
29854;SDS011;16733;48.738;9.106;2022-11-15T08:10:45;4.90;;;2.67;;
29854;SDS011;16733;48.738;9.106;2022-11-15T08:13:11;6.07;;;2.10;;
29854;SDS011;16733;48.738;9.106;2022-11-15T08:15:37;5.43;;;2.58;;
29854;SDS011;16733;48.738;9.106;2022-11-15T08:18:04;6.82;;;2.10;;
29854;SDS011;16733;48.738;9.106;2022-11-15T08:20:31;4.60;;;2.30;;
29854;SDS011;16733;48.738;9.106;2022-11-15T08:22:59;5.93;;;1.88;;
29854;SDS011;16733;48.738;9.106;2022-11-15T08:25:28;7.80;;;2.15;;
29854;SDS011;16733;48.738;9.106;2022-11-15T08:27:56;5.93;;;2.33;;
29854;SDS011;16733;48.738;9.106;2022-11-15T08:30:23;4.72;;;1.80;;
29854;SDS011;16733;48.738;9.106;2022-11-15T08:32:49;3.33;;;1.73;;
29854;SDS011;16733;48.738;9.106;2022-11-15T08:35:16;5.40;;;2.25;;
29854;SDS011;16733;48.738;9.106;2022-11-15T08:37:43;4.90;;;2.25;;
29854;SDS011;16733;48.738;9.106;2022-11-15T08:40:09;3.92;;;1.90;;
29854;SDS011;16733;48.738;9.106;2022-11-15T08:42:35;7.10;;;3.60;;
29854;SDS011;16733;48.738;9.106;2022-11-15T08:45:02;3.80;;;1.73;;
29854;SDS011;16733;48.738;9.106;2022-11-15T08:47:28;2.17;;;1.52;;
29854;SDS011;16733;48.738;9.106;2022-11-15T08:49:53;2.70;;;1.70;;
29854;SDS011;16733;48.738;9.106;2022-11-15T08:52:19;2.35;;;1.88;;
29854;SDS011;16733;48.738;9.106;2022-11-15T08:54:45;3.78;;;1.92;;
29854;SDS011;16733;48.738;9.106;2022-11-15T08:57:10;4.10;;;1.83;;
29854;SDS011;16733;48.738;9.106;2022-11-15T08:59:36;3.53;;;1.67;;
29854;SDS011;16733;48.738;9.106;2022-11-15T09:02:02;2.75;;;1.58;;
29854;SDS011;16733;48.738;9.106;2022-11-15T09:04:28;5.30;;;2.00;;
29854;SDS011;16733;48.738;9.106;2022-11-15T09:06:54;6.82;;;1.88;;
29854;SDS011;16733;48.738;9.106;2022-11-15T09:09:20;2.80;;;1.20;;
29854;SDS011;16733;48.738;9.106;2022-11-15T09:11:45;2.63;;;1.48;;
29854;SDS011;16733;48.738;9.106;2022-11-15T09:14:12;2.35;;;1.30;;
29854;SDS011;16733;48.738;9.106;2022-11-15T09:16:38;2.45;;;1.00;;
29854;SDS011;16733;48.738;9.106;2022-11-15T09:19:04;1.25;;;1.00;;
29854;SDS011;16733;48.738;9.106;2022-11-15T09:21:30;3.50;;;1.10;;
29854;SDS011;16733;48.738;9.106;2022-11-15T09:23:56;3.25;;;1.17;;
29854;SDS011;16733;48.738;9.106;2022-11-15T09:26:21;1.48;;;1.00;;
29854;SDS011;16733;48.738;9.106;2022-11-15T09:28:47;2.10;;;1.00;;
29854;SDS011;16733;48.738;9.106;2022-11-15T09:31:13;2.60;;;1.17;;
29854;SDS011;16733;48.738;9.106;2022-11-15T09:33:44;3.95;;;1.00;;
29854;SDS011;16733;48.738;9.106;2022-11-15T09:36:10;2.97;;;1.00;;
29854;SDS011;16733;48.738;9.106;2022-11-15T09:38:36;1.90;;;1.00;;
29854;SDS011;16733;48.738;9.106;2022-11-15T09:48:55;2.80;;;1.15;;
29854;SDS011;16733;48.738;9.106;2022-11-15T09:51:33;3.10;;;1.08;;
29854;SDS011;16733;48.738;9.106;2022-11-15T09:54:04;2.13;;;0.93;;
29854;SDS011;16733;48.738;9.106;2022-11-15T09:56:35;5.15;;;1.00;;
29854;SDS011;16733;48.738;9.106;2022-11-15T10:02:03;3.95;;;1.02;;
29854;SDS011;16733;48.738;9.106;2022-11-15T10:04:40;3.50;;;0.90;;
29854;SDS011;16733;48.738;9.106;2022-11-15T10:07:18;1.13;;;0.70;;
29854;SDS011;16733;48.738;9.106;2022-11-15T10:10:09;1.25;;;0.95;;
29854;SDS011;16733;48.738;9.106;2022-11-15T10:12:42;2.10;;;0.90;;
29854;SDS011;16733;48.738;9.106;2022-11-15T10:15:14;2.17;;;1.10;;
29854;SDS011;16733;48.738;9.106;2022-11-15T10:24:11;1.35;;;0.80;;
29854;SDS011;16733;48.738;9.106;2022-11-15T10:26:37;1.48;;;0.82;;
29854;SDS011;16733;48.738;9.106;2022-11-15T10:29:03;1.77;;;0.90;;
29854;SDS011;16733;48.738;9.106;2022-11-15T10:31:29;1.80;;;0.90;;
29854;SDS011;16733;48.738;9.106;2022-11-15T10:34:10;2.55;;;0.88;;
29854;SDS011;16733;48.738;9.106;2022-11-15T10:36:36;4.47;;;0.95;;
29854;SDS011;16733;48.738;9.106;2022-11-15T10:39:02;2.92;;;1.02;;
29854;SDS011;16733;48.738;9.106;2022-11-15T10:46:32;2.90;;;1.10;;
29854;SDS011;16733;48.738;9.106;2022-11-15T10:49:15;3.80;;;1.05;;
29854;SDS011;16733;48.738;9.106;2022-11-15T10:54:14;1.38;;;0.80;;
29854;SDS011;16733;48.738;9.106;2022-11-15T10:56:49;2.65;;;1.00;;
29854;SDS011;16733;48.738;9.106;2022-11-15T10:59:27;3.70;;;0.88;;
29854;SDS011;16733;48.738;9.106;2022-11-15T11:01:56;1.60;;;1.00;;
29854;SDS011;16733;48.738;9.106;2022-11-15T11:04:21;0.90;;;0.60;;
29854;SDS011;16733;48.738;9.106;2022-11-15T11:06:49;0.98;;;0.70;;
29854;SDS011;16733;48.738;9.106;2022-11-15T11:09:36;3.20;;;0.85;;
29854;SDS011;16733;48.738;9.106;2022-11-15T11:12:04;2.15;;;1.30;;
29854;SDS011;16733;48.738;9.106;2022-11-15T11:14:32;2.25;;;1.00;;
29854;SDS011;16733;48.738;9.106;2022-11-15T11:22:37;3.85;;;1.20;;
29854;SDS011;16733;48.738;9.106;2022-11-15T11:30:57;2.15;;;1.02;;
29854;SDS011;16733;48.738;9.106;2022-11-15T11:47:24;1.38;;;1.00;;
29854;SDS011;16733;48.738;9.106;2022-11-15T11:50:41;2.95;;;1.10;;
29854;SDS011;16733;48.738;9.106;2022-11-15T12:00:38;1.95;;;0.80;;
29854;SDS011;16733;48.738;9.106;2022-11-15T12:05:54;5.70;;;0.73;;
29854;SDS011;16733;48.738;9.106;2022-11-15T12:08:27;2.38;;;0.63;;
29854;SDS011;16733;48.738;9.106;2022-11-15T12:11:17;0.90;;;0.50;;
29854;SDS011;16733;48.738;9.106;2022-11-15T12:13:49;1.52;;;0.70;;
29854;SDS011;16733;48.738;9.106;2022-11-15T12:16:26;3.95;;;0.65;;
29854;SDS011;16733;48.738;9.106;2022-11-15T12:18:54;2.92;;;0.50;;
29854;SDS011;16733;48.738;9.106;2022-11-15T12:24:33;0.85;;;0.50;;
29854;SDS011;16733;48.738;9.106;2022-11-15T12:27:19;0.80;;;0.60;;
29854;SDS011;16733;48.738;9.106;2022-11-15T12:29:58;1.35;;;0.65;;
29854;SDS011;16733;48.738;9.106;2022-11-15T12:32:37;2.40;;;0.65;;
29854;SDS011;16733;48.738;9.106;2022-11-15T12:35:06;0.73;;;0.60;;
29854;SDS011;16733;48.738;9.106;2022-11-15T12:37:49;3.92;;;1.75;;
29854;SDS011;16733;48.738;9.106;2022-11-15T12:40:23;1.83;;;1.15;;
29854;SDS011;16733;48.738;9.106;2022-11-15T12:47:56;5.47;;;1.25;;
29854;SDS011;16733;48.738;9.106;2022-11-15T13:11:57;2.00;;;0.80;;
29854;SDS011;16733;48.738;9.106;2022-11-15T13:14:40;2.65;;;1.00;;
29854;SDS011;16733;48.738;9.106;2022-11-15T13:25:26;1.25;;;0.90;;
29854;SDS011;16733;48.738;9.106;2022-11-15T13:28:02;2.47;;;0.90;;
29854;SDS011;16733;48.738;9.106;2022-11-15T13:31:02;1.58;;;0.80;;
29854;SDS011;16733;48.738;9.106;2022-11-15T13:33:32;1.90;;;1.10;;
29854;SDS011;16733;48.738;9.106;2022-11-15T13:36:05;3.13;;;1.40;;
29854;SDS011;16733;48.738;9.106;2022-11-15T13:38:37;2.38;;;1.00;;
29854;SDS011;16733;48.738;9.106;2022-11-15T13:41:17;1.88;;;1.13;;
29854;SDS011;16733;48.738;9.106;2022-11-15T13:43:45;2.10;;;0.90;;
29854;SDS011;16733;48.738;9.106;2022-11-15T13:46:12;2.38;;;1.00;;
29854;SDS011;16733;48.738;9.106;2022-11-15T13:48:41;1.73;;;0.90;;
29854;SDS011;16733;48.738;9.106;2022-11-15T13:51:10;2.33;;;1.02;;
29854;SDS011;16733;48.738;9.106;2022-11-15T13:54:03;1.67;;;0.88;;
29854;SDS011;16733;48.738;9.106;2022-11-15T13:56:35;5.97;;;1.15;;
29854;SDS011;16733;48.738;9.106;2022-11-15T13:59:14;5.35;;;0.88;;
29854;SDS011;16733;48.738;9.106;2022-11-15T14:02:01;1.45;;;0.98;;
29854;SDS011;16733;48.738;9.106;2022-11-15T14:04:35;1.90;;;1.25;;
29854;SDS011;16733;48.738;9.106;2022-11-15T14:07:04;3.00;;;1.40;;
29854;SDS011;16733;48.738;9.106;2022-11-15T14:09:37;5.68;;;2.10;;
29854;SDS011;16733;48.738;9.106;2022-11-15T14:12:21;5.63;;;2.78;;
29854;SDS011;16733;48.738;9.106;2022-11-15T14:14:47;4.95;;;2.58;;
29854;SDS011;16733;48.738;9.106;2022-11-15T14:17:19;5.10;;;2.75;;
29854;SDS011;16733;48.738;9.106;2022-11-15T14:19:54;6.70;;;2.78;;
29854;SDS011;16733;48.738;9.106;2022-11-15T14:27:37;14.40;;;3.45;;
29854;SDS011;16733;48.738;9.106;2022-11-15T14:30:04;14.38;;;3.50;;
29854;SDS011;16733;48.738;9.106;2022-11-15T14:32:43;10.73;;;3.47;;
29854;SDS011;16733;48.738;9.106;2022-11-15T14:35:16;6.82;;;3.45;;
29854;SDS011;16733;48.738;9.106;2022-11-15T14:37:44;9.02;;;3.50;;
29854;SDS011;16733;48.738;9.106;2022-11-15T14:40:12;8.45;;;2.75;;
29854;SDS011;16733;48.738;9.106;2022-11-15T14:42:39;11.77;;;3.38;;
29854;SDS011;16733;48.738;9.106;2022-11-15T14:45:12;8.68;;;3.55;;
29854;SDS011;16733;48.738;9.106;2022-11-15T14:47:40;13.77;;;3.05;;
29854;SDS011;16733;48.738;9.106;2022-11-15T14:50:10;5.90;;;3.00;;
29854;SDS011;16733;48.738;9.106;2022-11-15T14:52:40;7.43;;;3.30;;
29854;SDS011;16733;48.738;9.106;2022-11-15T14:57:36;8.02;;;3.30;;
29854;SDS011;16733;48.738;9.106;2022-11-15T15:00:02;10.65;;;3.30;;
29854;SDS011;16733;48.738;9.106;2022-11-15T15:02:28;12.98;;;3.17;;
29854;SDS011;16733;48.738;9.106;2022-11-15T15:04:53;10.25;;;3.20;;
29854;SDS011;16733;48.738;9.106;2022-11-15T15:07:19;7.43;;;3.25;;
29854;SDS011;16733;48.738;9.106;2022-11-15T15:09:45;6.63;;;3.10;;
29854;SDS011;16733;48.738;9.106;2022-11-15T15:12:21;9.13;;;3.05;;
29854;SDS011;16733;48.738;9.106;2022-11-15T15:14:49;5.93;;;2.90;;
29854;SDS011;16733;48.738;9.106;2022-11-15T15:17:15;12.38;;;3.90;;
29854;SDS011;16733;48.738;9.106;2022-11-15T15:19:41;9.55;;;3.20;;
29854;SDS011;16733;48.738;9.106;2022-11-15T15:22:15;9.40;;;3.47;;
29854;SDS011;16733;48.738;9.106;2022-11-15T15:24:43;7.07;;;3.50;;
29854;SDS011;16733;48.738;9.106;2022-11-15T15:27:09;9.90;;;3.10;;
29854;SDS011;16733;48.738;9.106;2022-11-15T15:29:35;10.18;;;3.95;;
29854;SDS011;16733;48.738;9.106;2022-11-15T15:32:01;15.00;;;3.60;;
29854;SDS011;16733;48.738;9.106;2022-11-15T15:34:27;11.98;;;3.58;;
29854;SDS011;16733;48.738;9.106;2022-11-15T15:39:36;12.55;;;4.72;;
29854;SDS011;16733;48.738;9.106;2022-11-15T15:42:03;7.38;;;3.38;;
29854;SDS011;16733;48.738;9.106;2022-11-15T15:44:28;9.50;;;3.35;;
29854;SDS011;16733;48.738;9.106;2022-11-15T15:46:54;8.07;;;3.55;;
29854;SDS011;16733;48.738;9.106;2022-11-15T15:49:20;7.55;;;3.40;;
29854;SDS011;16733;48.738;9.106;2022-11-15T15:51:45;6.55;;;3.20;;
29854;SDS011;16733;48.738;9.106;2022-11-15T15:54:11;11.32;;;4.00;;
29854;SDS011;16733;48.738;9.106;2022-11-15T15:56:36;9.45;;;3.97;;
29854;SDS011;16733;48.738;9.106;2022-11-15T15:59:02;9.25;;;3.97;;
29854;SDS011;16733;48.738;9.106;2022-11-15T16:01:27;7.63;;;3.80;;
29854;SDS011;16733;48.738;9.106;2022-11-15T16:03:53;6.68;;;3.70;;
29854;SDS011;16733;48.738;9.106;2022-11-15T16:06:32;9.23;;;3.70;;
29854;SDS011;16733;48.738;9.106;2022-11-15T16:08:58;5.80;;;3.65;;
29854;SDS011;16733;48.738;9.106;2022-11-15T16:11:24;10.27;;;4.15;;
29854;SDS011;16733;48.738;9.106;2022-11-15T16:13:49;10.20;;;3.83;;
29854;SDS011;16733;48.738;9.106;2022-11-15T16:16:15;8.70;;;4.18;;
29854;SDS011;16733;48.738;9.106;2022-11-15T16:18:41;9.63;;;4.03;;
29854;SDS011;16733;48.738;9.106;2022-11-15T16:21:07;14.52;;;4.15;;
29854;SDS011;16733;48.738;9.106;2022-11-15T16:23:33;8.45;;;4.25;;
29854;SDS011;16733;48.738;9.106;2022-11-15T16:25:58;16.30;;;4.90;;
29854;SDS011;16733;48.738;9.106;2022-11-15T16:28:27;16.70;;;5.35;;
29854;SDS011;16733;48.738;9.106;2022-11-15T16:30:59;12.70;;;4.78;;
29854;SDS011;16733;48.738;9.106;2022-11-15T16:33:28;10.52;;;4.70;;
29854;SDS011;16733;48.738;9.106;2022-11-15T16:35:54;11.45;;;4.15;;
29854;SDS011;16733;48.738;9.106;2022-11-15T16:38:19;12.60;;;4.70;;
29854;SDS011;16733;48.738;9.106;2022-11-15T16:40:45;15.05;;;4.75;;
29854;SDS011;16733;48.738;9.106;2022-11-15T16:43:11;9.98;;;5.30;;
29854;SDS011;16733;48.738;9.106;2022-11-15T16:45:36;9.63;;;4.97;;
29854;SDS011;16733;48.738;9.106;2022-11-15T16:48:02;7.55;;;4.20;;
29854;SDS011;16733;48.738;9.106;2022-11-15T16:50:30;19.38;;;6.82;;
29854;SDS011;16733;48.738;9.106;2022-11-15T16:52:59;9.10;;;4.50;;
29854;SDS011;16733;48.738;9.106;2022-11-15T16:55:26;14.60;;;5.68;;
29854;SDS011;16733;48.738;9.106;2022-11-15T16:57:53;10.32;;;4.55;;
29854;SDS011;16733;48.738;9.106;2022-11-15T17:00:21;11.43;;;4.93;;
29854;SDS011;16733;48.738;9.106;2022-11-15T17:02:48;11.38;;;4.30;;
29854;SDS011;16733;48.738;9.106;2022-11-15T17:05:15;11.57;;;4.40;;
29854;SDS011;16733;48.738;9.106;2022-11-15T17:07:48;8.63;;;4.43;;
29854;SDS011;16733;48.738;9.106;2022-11-15T17:12:44;10.95;;;4.57;;
29854;SDS011;16733;48.738;9.106;2022-11-15T17:15:13;12.02;;;4.75;;
29854;SDS011;16733;48.738;9.106;2022-11-15T17:17:39;11.63;;;4.45;;